sensor_id;sensor_type;location;lat;lon;timestamp;P1;durP1;ratioP1;P2;durP2;ratioP2
42600;SDS011;28229;48.856;9.088;2023-04-03T00:00:35;3.97;;;2.47;;
42600;SDS011;28229;48.856;9.088;2023-04-03T00:03:02;3.67;;;2.80;;
42600;SDS011;28229;48.856;9.088;2023-04-03T00:05:28;3.50;;;2.50;;
42600;SDS011;28229;48.856;9.088;2023-04-03T00:07:55;4.13;;;2.40;;
42600;SDS011;28229;48.856;9.088;2023-04-03T00:10:21;2.47;;;2.27;;
42600;SDS011;28229;48.856;9.088;2023-04-03T00:12:47;3.30;;;2.40;;
42600;SDS011;28229;48.856;9.088;2023-04-03T00:15:13;2.50;;;2.30;;
42600;SDS011;28229;48.856;9.088;2023-04-03T00:17:39;2.87;;;2.53;;
42600;SDS011;28229;48.856;9.088;2023-04-03T00:20:06;3.07;;;2.47;;
42600;SDS011;28229;48.856;9.088;2023-04-03T00:22:32;4.67;;;2.67;;
42600;SDS011;28229;48.856;9.088;2023-04-03T00:24:58;2.80;;;2.50;;
42600;SDS011;28229;48.856;9.088;2023-04-03T00:27:25;3.30;;;2.50;;
42600;SDS011;28229;48.856;9.088;2023-04-03T00:29:51;2.30;;;2.10;;
42600;SDS011;28229;48.856;9.088;2023-04-03T00:32:17;2.77;;;2.40;;
42600;SDS011;28229;48.856;9.088;2023-04-03T00:34:44;2.60;;;2.40;;
42600;SDS011;28229;48.856;9.088;2023-04-03T00:37:10;2.53;;;2.30;;
42600;SDS011;28229;48.856;9.088;2023-04-03T00:39:36;3.17;;;2.53;;
42600;SDS011;28229;48.856;9.088;2023-04-03T00:42:03;2.93;;;2.40;;
42600;SDS011;28229;48.856;9.088;2023-04-03T00:46:58;3.27;;;2.30;;
42600;SDS011;28229;48.856;9.088;2023-04-03T00:49:25;3.10;;;2.37;;
42600;SDS011;28229;48.856;9.088;2023-04-03T00:51:52;4.80;;;2.80;;
42600;SDS011;28229;48.856;9.088;2023-04-03T00:54:20;3.97;;;2.47;;
42600;SDS011;28229;48.856;9.088;2023-04-03T00:56:46;3.27;;;2.50;;
42600;SDS011;28229;48.856;9.088;2023-04-03T00:59:14;3.00;;;2.37;;
42600;SDS011;28229;48.856;9.088;2023-04-03T01:01:42;2.67;;;2.30;;
42600;SDS011;28229;48.856;9.088;2023-04-03T01:04:28;2.87;;;2.00;;
42600;SDS011;28229;48.856;9.088;2023-04-03T01:07:01;2.50;;;2.20;;
42600;SDS011;28229;48.856;9.088;2023-04-03T01:09:34;3.20;;;2.20;;
42600;SDS011;28229;48.856;9.088;2023-04-03T01:12:18;3.07;;;2.77;;
42600;SDS011;28229;48.856;9.088;2023-04-03T01:14:48;4.07;;;2.33;;
42600;SDS011;28229;48.856;9.088;2023-04-03T01:25:38;4.27;;;2.27;;
42600;SDS011;28229;48.856;9.088;2023-04-03T01:28:14;3.43;;;2.50;;
42600;SDS011;28229;48.856;9.088;2023-04-03T01:33:37;2.63;;;2.23;;
42600;SDS011;28229;48.856;9.088;2023-04-03T01:36:04;2.57;;;2.30;;
42600;SDS011;28229;48.856;9.088;2023-04-03T01:38:31;3.33;;;2.63;;
42600;SDS011;28229;48.856;9.088;2023-04-03T01:40:57;3.47;;;2.63;;
42600;SDS011;28229;48.856;9.088;2023-04-03T01:43:24;2.87;;;2.20;;
42600;SDS011;28229;48.856;9.088;2023-04-03T01:45:50;3.00;;;2.53;;
42600;SDS011;28229;48.856;9.088;2023-04-03T01:48:18;2.63;;;2.27;;
42600;SDS011;28229;48.856;9.088;2023-04-03T01:50:44;3.33;;;2.73;;
42600;SDS011;28229;48.856;9.088;2023-04-03T01:53:10;4.17;;;2.70;;
42600;SDS011;28229;48.856;9.088;2023-04-03T01:55:37;2.67;;;2.47;;
42600;SDS011;28229;48.856;9.088;2023-04-03T01:58:03;2.87;;;2.60;;
42600;SDS011;28229;48.856;9.088;2023-04-03T02:00:29;3.00;;;2.70;;
42600;SDS011;28229;48.856;9.088;2023-04-03T02:02:56;3.20;;;2.40;;
42600;SDS011;28229;48.856;9.088;2023-04-03T02:05:22;2.80;;;2.60;;
42600;SDS011;28229;48.856;9.088;2023-04-03T02:07:49;2.90;;;2.43;;
42600;SDS011;28229;48.856;9.088;2023-04-03T02:10:15;2.97;;;2.67;;
42600;SDS011;28229;48.856;9.088;2023-04-03T02:12:42;2.93;;;2.63;;
42600;SDS011;28229;48.856;9.088;2023-04-03T02:15:08;3.37;;;2.80;;
42600;SDS011;28229;48.856;9.088;2023-04-03T02:17:35;3.17;;;2.70;;
42600;SDS011;28229;48.856;9.088;2023-04-03T02:20:01;5.20;;;2.50;;
42600;SDS011;28229;48.856;9.088;2023-04-03T02:22:29;3.07;;;2.60;;
42600;SDS011;28229;48.856;9.088;2023-04-03T02:24:56;3.30;;;2.97;;
42600;SDS011;28229;48.856;9.088;2023-04-03T02:27:30;3.67;;;2.90;;
42600;SDS011;28229;48.856;9.088;2023-04-03T02:29:57;2.93;;;2.70;;
42600;SDS011;28229;48.856;9.088;2023-04-03T02:32:23;3.43;;;2.50;;
42600;SDS011;28229;48.856;9.088;2023-04-03T02:34:59;3.50;;;2.43;;
42600;SDS011;28229;48.856;9.088;2023-04-03T02:37:25;3.10;;;2.70;;
42600;SDS011;28229;48.856;9.088;2023-04-03T02:39:54;3.00;;;2.60;;
42600;SDS011;28229;48.856;9.088;2023-04-03T02:42:21;2.67;;;2.40;;
42600;SDS011;28229;48.856;9.088;2023-04-03T02:44:47;4.43;;;2.57;;
42600;SDS011;28229;48.856;9.088;2023-04-03T02:47:13;3.70;;;2.20;;
42600;SDS011;28229;48.856;9.088;2023-04-03T02:49:39;3.87;;;2.60;;
42600;SDS011;28229;48.856;9.088;2023-04-03T02:52:05;2.60;;;2.40;;
42600;SDS011;28229;48.856;9.088;2023-04-03T02:54:32;2.87;;;2.60;;
42600;SDS011;28229;48.856;9.088;2023-04-03T02:57:02;2.93;;;2.43;;
42600;SDS011;28229;48.856;9.088;2023-04-03T02:59:28;3.80;;;2.40;;
42600;SDS011;28229;48.856;9.088;2023-04-03T03:01:55;2.67;;;2.30;;
42600;SDS011;28229;48.856;9.088;2023-04-03T03:04:22;3.10;;;2.60;;
42600;SDS011;28229;48.856;9.088;2023-04-03T03:06:48;3.60;;;2.50;;
42600;SDS011;28229;48.856;9.088;2023-04-03T03:09:14;3.90;;;2.80;;
42600;SDS011;28229;48.856;9.088;2023-04-03T03:11:42;3.77;;;2.43;;
42600;SDS011;28229;48.856;9.088;2023-04-03T03:14:09;3.80;;;2.53;;
42600;SDS011;28229;48.856;9.088;2023-04-03T03:16:35;2.47;;;2.27;;
42600;SDS011;28229;48.856;9.088;2023-04-03T03:19:01;2.40;;;2.20;;
42600;SDS011;28229;48.856;9.088;2023-04-03T03:21:28;2.70;;;2.50;;
42600;SDS011;28229;48.856;9.088;2023-04-03T03:23:55;6.50;;;3.93;;
42600;SDS011;28229;48.856;9.088;2023-04-03T03:26:21;7.13;;;4.30;;
42600;SDS011;28229;48.856;9.088;2023-04-03T03:28:47;3.10;;;2.80;;
42600;SDS011;28229;48.856;9.088;2023-04-03T03:31:13;2.40;;;2.20;;
42600;SDS011;28229;48.856;9.088;2023-04-03T03:33:41;3.40;;;3.10;;
42600;SDS011;28229;48.856;9.088;2023-04-03T03:36:07;5.00;;;4.27;;
42600;SDS011;28229;48.856;9.088;2023-04-03T03:38:35;4.47;;;3.40;;
42600;SDS011;28229;48.856;9.088;2023-04-03T03:41:02;3.07;;;2.60;;
42600;SDS011;28229;48.856;9.088;2023-04-03T03:43:31;2.70;;;2.30;;
42600;SDS011;28229;48.856;9.088;2023-04-03T03:45:57;4.30;;;2.40;;
42600;SDS011;28229;48.856;9.088;2023-04-03T03:48:24;3.57;;;2.70;;
42600;SDS011;28229;48.856;9.088;2023-04-03T03:50:51;3.97;;;2.20;;
42600;SDS011;28229;48.856;9.088;2023-04-03T03:53:19;2.30;;;2.10;;
42600;SDS011;28229;48.856;9.088;2023-04-03T03:55:46;3.30;;;2.43;;
42600;SDS011;28229;48.856;9.088;2023-04-03T03:58:12;2.90;;;2.27;;
42600;SDS011;28229;48.856;9.088;2023-04-03T04:00:38;2.47;;;2.27;;
42600;SDS011;28229;48.856;9.088;2023-04-03T04:03:05;2.40;;;2.30;;
42600;SDS011;28229;48.856;9.088;2023-04-03T04:05:31;2.80;;;2.20;;
42600;SDS011;28229;48.856;9.088;2023-04-03T04:07:59;2.30;;;2.10;;
42600;SDS011;28229;48.856;9.088;2023-04-03T04:10:26;2.30;;;2.10;;
42600;SDS011;28229;48.856;9.088;2023-04-03T04:12:52;3.10;;;2.30;;
42600;SDS011;28229;48.856;9.088;2023-04-03T04:15:23;2.70;;;2.50;;
42600;SDS011;28229;48.856;9.088;2023-04-03T04:17:52;3.50;;;2.87;;
42600;SDS011;28229;48.856;9.088;2023-04-03T04:20:19;2.90;;;2.60;;
42600;SDS011;28229;48.856;9.088;2023-04-03T04:22:46;3.07;;;2.50;;
42600;SDS011;28229;48.856;9.088;2023-04-03T04:25:13;5.37;;;2.77;;
42600;SDS011;28229;48.856;9.088;2023-04-03T04:27:40;3.40;;;2.43;;
42600;SDS011;28229;48.856;9.088;2023-04-03T04:30:07;3.33;;;2.73;;
42600;SDS011;28229;48.856;9.088;2023-04-03T04:32:33;3.30;;;2.57;;
42600;SDS011;28229;48.856;9.088;2023-04-03T04:35:00;3.50;;;2.50;;
42600;SDS011;28229;48.856;9.088;2023-04-03T04:37:28;2.80;;;2.60;;
42600;SDS011;28229;48.856;9.088;2023-04-03T04:39:54;3.13;;;2.83;;
42600;SDS011;28229;48.856;9.088;2023-04-03T04:42:20;3.50;;;2.57;;
42600;SDS011;28229;48.856;9.088;2023-04-03T04:44:48;2.47;;;2.27;;
42600;SDS011;28229;48.856;9.088;2023-04-03T04:47:15;3.83;;;2.37;;
42600;SDS011;28229;48.856;9.088;2023-04-03T04:49:42;2.57;;;2.37;;
42600;SDS011;28229;48.856;9.088;2023-04-03T04:52:09;2.50;;;2.07;;
42600;SDS011;28229;48.856;9.088;2023-04-03T04:54:36;2.07;;;1.93;;
42600;SDS011;28229;48.856;9.088;2023-04-03T04:57:02;3.07;;;2.00;;
42600;SDS011;28229;48.856;9.088;2023-04-03T04:59:30;3.27;;;2.23;;
42600;SDS011;28229;48.856;9.088;2023-04-03T05:01:58;2.37;;;2.17;;
42600;SDS011;28229;48.856;9.088;2023-04-03T05:04:27;2.53;;;2.20;;
42600;SDS011;28229;48.856;9.088;2023-04-03T05:06:59;3.17;;;2.47;;
42600;SDS011;28229;48.856;9.088;2023-04-03T05:09:28;3.07;;;2.60;;
42600;SDS011;28229;48.856;9.088;2023-04-03T05:11:55;2.70;;;2.37;;
42600;SDS011;28229;48.856;9.088;2023-04-03T05:14:25;3.17;;;2.50;;
42600;SDS011;28229;48.856;9.088;2023-04-03T05:16:52;2.33;;;2.13;;
42600;SDS011;28229;48.856;9.088;2023-04-03T05:19:21;3.13;;;2.50;;
42600;SDS011;28229;48.856;9.088;2023-04-03T05:21:48;2.87;;;2.33;;
42600;SDS011;28229;48.856;9.088;2023-04-03T05:24:16;3.80;;;2.53;;
42600;SDS011;28229;48.856;9.088;2023-04-03T05:26:43;3.97;;;2.50;;
42600;SDS011;28229;48.856;9.088;2023-04-03T05:29:10;2.17;;;2.03;;
42600;SDS011;28229;48.856;9.088;2023-04-03T05:31:37;3.37;;;2.60;;
42600;SDS011;28229;48.856;9.088;2023-04-03T05:34:06;4.87;;;2.90;;
42600;SDS011;28229;48.856;9.088;2023-04-03T05:36:35;4.33;;;2.80;;
42600;SDS011;28229;48.856;9.088;2023-04-03T05:39:05;3.13;;;2.80;;
42600;SDS011;28229;48.856;9.088;2023-04-03T05:41:33;3.87;;;3.10;;
42600;SDS011;28229;48.856;9.088;2023-04-03T05:44:00;4.10;;;2.80;;
42600;SDS011;28229;48.856;9.088;2023-04-03T05:46:27;5.77;;;3.87;;
42600;SDS011;28229;48.856;9.088;2023-04-03T05:48:55;4.67;;;3.73;;
42600;SDS011;28229;48.856;9.088;2023-04-03T05:51:27;3.93;;;3.23;;
42600;SDS011;28229;48.856;9.088;2023-04-03T05:54:09;4.17;;;3.17;;
42600;SDS011;28229;48.856;9.088;2023-04-03T05:56:59;4.77;;;2.80;;
42600;SDS011;28229;48.856;9.088;2023-04-03T05:59:26;3.20;;;2.50;;
42600;SDS011;28229;48.856;9.088;2023-04-03T06:01:55;2.83;;;2.30;;
42600;SDS011;28229;48.856;9.088;2023-04-03T06:04:22;2.50;;;2.30;;
42600;SDS011;28229;48.856;9.088;2023-04-03T06:06:52;2.63;;;2.20;;
42600;SDS011;28229;48.856;9.088;2023-04-03T06:09:21;3.53;;;2.47;;
42600;SDS011;28229;48.856;9.088;2023-04-03T06:11:50;2.53;;;2.23;;
42600;SDS011;28229;48.856;9.088;2023-04-03T06:14:17;2.87;;;2.33;;
42600;SDS011;28229;48.856;9.088;2023-04-03T06:16:43;2.37;;;2.17;;
42600;SDS011;28229;48.856;9.088;2023-04-03T06:19:10;2.57;;;2.20;;
42600;SDS011;28229;48.856;9.088;2023-04-03T06:21:41;2.50;;;2.30;;
42600;SDS011;28229;48.856;9.088;2023-04-03T06:24:09;3.00;;;2.17;;
42600;SDS011;28229;48.856;9.088;2023-04-03T06:26:39;3.93;;;2.40;;
42600;SDS011;28229;48.856;9.088;2023-04-03T06:29:05;3.50;;;2.43;;
42600;SDS011;28229;48.856;9.088;2023-04-03T06:31:31;2.70;;;2.47;;
42600;SDS011;28229;48.856;9.088;2023-04-03T06:33:58;2.80;;;2.43;;
42600;SDS011;28229;48.856;9.088;2023-04-03T06:36:24;4.03;;;2.63;;
42600;SDS011;28229;48.856;9.088;2023-04-03T06:38:51;2.70;;;2.50;;
42600;SDS011;28229;48.856;9.088;2023-04-03T06:41:17;4.93;;;2.63;;
42600;SDS011;28229;48.856;9.088;2023-04-03T06:43:43;3.43;;;2.30;;
42600;SDS011;28229;48.856;9.088;2023-04-03T06:46:21;2.60;;;2.40;;
42600;SDS011;28229;48.856;9.088;2023-04-03T06:48:48;3.17;;;2.40;;
42600;SDS011;28229;48.856;9.088;2023-04-03T06:51:17;3.60;;;2.50;;
42600;SDS011;28229;48.856;9.088;2023-04-03T06:53:47;3.37;;;2.57;;
42600;SDS011;28229;48.856;9.088;2023-04-03T06:56:14;2.70;;;2.50;;
42600;SDS011;28229;48.856;9.088;2023-04-03T06:58:41;4.10;;;2.60;;
42600;SDS011;28229;48.856;9.088;2023-04-03T07:01:08;4.30;;;2.73;;
42600;SDS011;28229;48.856;9.088;2023-04-03T07:03:35;4.07;;;2.97;;
42600;SDS011;28229;48.856;9.088;2023-04-03T07:06:03;3.90;;;2.60;;
42600;SDS011;28229;48.856;9.088;2023-04-03T07:08:33;2.70;;;2.50;;
42600;SDS011;28229;48.856;9.088;2023-04-03T07:11:00;5.47;;;2.80;;
42600;SDS011;28229;48.856;9.088;2023-04-03T07:13:27;3.17;;;2.63;;
42600;SDS011;28229;48.856;9.088;2023-04-03T07:15:53;4.53;;;3.00;;
42600;SDS011;28229;48.856;9.088;2023-04-03T07:18:19;18.83;;;3.50;;
42600;SDS011;28229;48.856;9.088;2023-04-03T07:20:45;6.07;;;2.80;;
42600;SDS011;28229;48.856;9.088;2023-04-03T07:23:11;4.23;;;2.50;;
42600;SDS011;28229;48.856;9.088;2023-04-03T07:25:44;3.13;;;2.83;;
42600;SDS011;28229;48.856;9.088;2023-04-03T07:28:14;3.07;;;2.60;;
42600;SDS011;28229;48.856;9.088;2023-04-03T07:30:45;3.50;;;2.50;;
42600;SDS011;28229;48.856;9.088;2023-04-03T07:33:16;3.50;;;2.50;;
42600;SDS011;28229;48.856;9.088;2023-04-03T07:35:44;3.40;;;2.70;;
42600;SDS011;28229;48.856;9.088;2023-04-03T07:38:11;3.43;;;2.60;;
42600;SDS011;28229;48.856;9.088;2023-04-03T07:40:40;3.87;;;3.00;;
42600;SDS011;28229;48.856;9.088;2023-04-03T07:43:12;3.07;;;2.73;;
42600;SDS011;28229;48.856;9.088;2023-04-03T07:45:41;4.60;;;2.70;;
42600;SDS011;28229;48.856;9.088;2023-04-03T07:48:12;3.67;;;2.97;;
42600;SDS011;28229;48.856;9.088;2023-04-03T07:50:42;3.43;;;3.10;;
42600;SDS011;28229;48.856;9.088;2023-04-03T07:53:08;4.57;;;3.10;;
42600;SDS011;28229;48.856;9.088;2023-04-03T07:55:35;3.87;;;3.10;;
42600;SDS011;28229;48.856;9.088;2023-04-03T07:58:13;6.13;;;3.70;;
42600;SDS011;28229;48.856;9.088;2023-04-03T08:00:55;3.97;;;2.70;;
42600;SDS011;28229;48.856;9.088;2023-04-03T08:03:22;3.63;;;2.90;;
42600;SDS011;28229;48.856;9.088;2023-04-03T08:05:49;5.83;;;3.00;;
42600;SDS011;28229;48.856;9.088;2023-04-03T08:08:17;4.73;;;3.10;;
42600;SDS011;28229;48.856;9.088;2023-04-03T08:10:49;4.93;;;3.37;;
42600;SDS011;28229;48.856;9.088;2023-04-03T08:13:19;4.50;;;2.73;;
42600;SDS011;28229;48.856;9.088;2023-04-03T08:15:46;3.20;;;2.83;;
42600;SDS011;28229;48.856;9.088;2023-04-03T08:18:13;5.27;;;2.93;;
42600;SDS011;28229;48.856;9.088;2023-04-03T08:20:40;6.47;;;2.70;;
42600;SDS011;28229;48.856;9.088;2023-04-03T08:23:07;3.20;;;2.90;;
42600;SDS011;28229;48.856;9.088;2023-04-03T08:25:38;3.27;;;2.90;;
42600;SDS011;28229;48.856;9.088;2023-04-03T08:28:05;5.10;;;2.80;;
42600;SDS011;28229;48.856;9.088;2023-04-03T08:30:32;4.73;;;2.63;;
42600;SDS011;28229;48.856;9.088;2023-04-03T08:33:00;4.03;;;2.73;;
42600;SDS011;28229;48.856;9.088;2023-04-03T08:35:27;4.17;;;2.87;;
42600;SDS011;28229;48.856;9.088;2023-04-03T08:37:54;4.10;;;2.50;;
42600;SDS011;28229;48.856;9.088;2023-04-03T08:40:20;2.50;;;2.30;;
42600;SDS011;28229;48.856;9.088;2023-04-03T08:48:19;3.77;;;2.77;;
42600;SDS011;28229;48.856;9.088;2023-04-03T08:50:51;4.17;;;2.60;;
42600;SDS011;28229;48.856;9.088;2023-04-03T08:53:24;3.87;;;2.60;;
42600;SDS011;28229;48.856;9.088;2023-04-03T08:55:54;2.93;;;2.47;;
42600;SDS011;28229;48.856;9.088;2023-04-03T08:58:22;3.10;;;2.80;;
42600;SDS011;28229;48.856;9.088;2023-04-03T09:00:58;3.20;;;2.30;;
42600;SDS011;28229;48.856;9.088;2023-04-03T09:03:29;2.80;;;2.40;;
42600;SDS011;28229;48.856;9.088;2023-04-03T09:05:59;3.83;;;2.90;;
42600;SDS011;28229;48.856;9.088;2023-04-03T09:08:33;3.03;;;2.73;;
42600;SDS011;28229;48.856;9.088;2023-04-03T09:11:16;4.80;;;2.50;;
42600;SDS011;28229;48.856;9.088;2023-04-03T09:16:19;2.60;;;2.27;;
42600;SDS011;28229;48.856;9.088;2023-04-03T09:18:54;5.27;;;2.37;;
42600;SDS011;28229;48.856;9.088;2023-04-03T09:21:30;2.70;;;2.27;;
42600;SDS011;28229;48.856;9.088;2023-04-03T09:24:01;2.63;;;2.30;;
42600;SDS011;28229;48.856;9.088;2023-04-03T09:26:36;5.57;;;2.40;;
42600;SDS011;28229;48.856;9.088;2023-04-03T09:29:25;3.00;;;2.43;;
42600;SDS011;28229;48.856;9.088;2023-04-03T09:32:02;2.63;;;2.17;;
42600;SDS011;28229;48.856;9.088;2023-04-03T09:34:38;2.93;;;2.00;;
42600;SDS011;28229;48.856;9.088;2023-04-03T09:40:03;3.53;;;2.20;;
42600;SDS011;28229;48.856;9.088;2023-04-03T09:42:30;4.40;;;2.50;;
42600;SDS011;28229;48.856;9.088;2023-04-03T09:47:35;2.63;;;2.00;;
42600;SDS011;28229;48.856;9.088;2023-04-03T09:52:40;2.43;;;2.00;;
42600;SDS011;28229;48.856;9.088;2023-04-03T09:55:24;3.47;;;2.00;;
42600;SDS011;28229;48.856;9.088;2023-04-03T09:57:56;2.53;;;1.80;;
42600;SDS011;28229;48.856;9.088;2023-04-03T10:00:26;3.90;;;1.87;;
42600;SDS011;28229;48.856;9.088;2023-04-03T10:03:01;2.67;;;1.80;;
42600;SDS011;28229;48.856;9.088;2023-04-03T10:05:35;2.50;;;1.50;;
42600;SDS011;28229;48.856;9.088;2023-04-03T10:08:19;2.13;;;1.70;;
42600;SDS011;28229;48.856;9.088;2023-04-03T10:11:05;2.80;;;2.00;;
42600;SDS011;28229;48.856;9.088;2023-04-03T10:13:49;4.60;;;2.10;;
42600;SDS011;28229;48.856;9.088;2023-04-03T10:16:24;2.07;;;1.70;;
42600;SDS011;28229;48.856;9.088;2023-04-03T10:24:13;3.07;;;1.83;;
42600;SDS011;28229;48.856;9.088;2023-04-03T10:32:32;2.43;;;1.70;;
42600;SDS011;28229;48.856;9.088;2023-04-03T10:35:12;2.97;;;1.77;;
42600;SDS011;28229;48.856;9.088;2023-04-03T10:37:50;3.47;;;1.73;;
42600;SDS011;28229;48.856;9.088;2023-04-03T10:52:31;1.93;;;1.40;;
42600;SDS011;28229;48.856;9.088;2023-04-03T10:57:52;2.53;;;1.43;;
42600;SDS011;28229;48.856;9.088;2023-04-03T11:00:25;2.17;;;1.80;;
42600;SDS011;28229;48.856;9.088;2023-04-03T11:03:00;1.83;;;1.50;;
42600;SDS011;28229;48.856;9.088;2023-04-03T11:05:42;1.47;;;1.37;;
42600;SDS011;28229;48.856;9.088;2023-04-03T11:08:13;2.43;;;1.70;;
42600;SDS011;28229;48.856;9.088;2023-04-03T11:10:52;1.90;;;1.70;;
42600;SDS011;28229;48.856;9.088;2023-04-03T11:13:28;2.70;;;1.70;;
42600;SDS011;28229;48.856;9.088;2023-04-03T11:16:00;2.20;;;1.63;;
42600;SDS011;28229;48.856;9.088;2023-04-03T11:18:39;2.27;;;1.90;;
42600;SDS011;28229;48.856;9.088;2023-04-03T11:21:31;2.73;;;2.03;;
42600;SDS011;28229;48.856;9.088;2023-04-03T11:24:00;2.30;;;2.00;;
42600;SDS011;28229;48.856;9.088;2023-04-03T11:26:31;1.93;;;1.70;;
42600;SDS011;28229;48.856;9.088;2023-04-03T11:29:06;1.83;;;1.43;;
42600;SDS011;28229;48.856;9.088;2023-04-03T11:34:45;2.10;;;1.70;;
42600;SDS011;28229;48.856;9.088;2023-04-03T11:37:20;4.50;;;2.17;;
42600;SDS011;28229;48.856;9.088;2023-04-03T11:39:54;2.50;;;1.73;;
42600;SDS011;28229;48.856;9.088;2023-04-03T11:45:49;1.93;;;1.80;;
42600;SDS011;28229;48.856;9.088;2023-04-03T11:47:56;3.37;;;1.93;;
42600;SDS011;28229;48.856;9.088;2023-04-03T11:52:57;2.60;;;2.10;;
42600;SDS011;28229;48.856;9.088;2023-04-03T12:45:55;5.37;;;2.40;;
42600;SDS011;28229;48.856;9.088;2023-04-03T12:48:24;2.30;;;1.80;;
42600;SDS011;28229;48.856;9.088;2023-04-03T12:50:51;3.30;;;1.70;;
42600;SDS011;28229;48.856;9.088;2023-04-03T12:53:19;3.43;;;2.10;;
42600;SDS011;28229;48.856;9.088;2023-04-03T12:55:53;2.77;;;1.87;;
42600;SDS011;28229;48.856;9.088;2023-04-03T12:58:25;1.73;;;1.50;;
42600;SDS011;28229;48.856;9.088;2023-04-03T13:01:12;3.43;;;1.80;;
42600;SDS011;28229;48.856;9.088;2023-04-03T13:03:53;1.67;;;1.50;;
42600;SDS011;28229;48.856;9.088;2023-04-03T13:06:26;1.73;;;1.63;;
42600;SDS011;28229;48.856;9.088;2023-04-03T13:08:57;1.87;;;1.50;;
42600;SDS011;28229;48.856;9.088;2023-04-03T13:11:36;1.97;;;1.60;;
42600;SDS011;28229;48.856;9.088;2023-04-03T13:14:14;1.73;;;1.60;;
42600;SDS011;28229;48.856;9.088;2023-04-03T13:16:52;3.07;;;1.67;;
42600;SDS011;28229;48.856;9.088;2023-04-03T13:19:23;2.60;;;1.80;;
42600;SDS011;28229;48.856;9.088;2023-04-03T13:21:58;1.90;;;1.70;;
42600;SDS011;28229;48.856;9.088;2023-04-03T13:24:29;3.57;;;1.80;;
42600;SDS011;28229;48.856;9.088;2023-04-03T13:26:58;2.30;;;2.00;;
42600;SDS011;28229;48.856;9.088;2023-04-03T13:29:27;1.90;;;1.80;;
42600;SDS011;28229;48.856;9.088;2023-04-03T13:31:56;2.53;;;1.77;;
42600;SDS011;28229;48.856;9.088;2023-04-03T13:34:25;3.60;;;1.80;;
42600;SDS011;28229;48.856;9.088;2023-04-03T13:36:55;1.87;;;1.60;;
42600;SDS011;28229;48.856;9.088;2023-04-03T13:39:26;3.50;;;1.70;;
42600;SDS011;28229;48.856;9.088;2023-04-03T13:41:57;3.90;;;2.37;;
42600;SDS011;28229;48.856;9.088;2023-04-03T13:47:01;2.83;;;2.03;;
42600;SDS011;28229;48.856;9.088;2023-04-03T13:49:42;2.20;;;2.00;;
42600;SDS011;28229;48.856;9.088;2023-04-03T13:52:30;2.00;;;1.80;;
42600;SDS011;28229;48.856;9.088;2023-04-03T13:55:03;1.90;;;1.73;;
42600;SDS011;28229;48.856;9.088;2023-04-03T13:57:50;3.23;;;1.63;;
42600;SDS011;28229;48.856;9.088;2023-04-03T14:00:21;2.57;;;1.63;;
42600;SDS011;28229;48.856;9.088;2023-04-03T14:02:54;3.80;;;1.70;;
42600;SDS011;28229;48.856;9.088;2023-04-03T14:05:22;3.30;;;1.97;;
42600;SDS011;28229;48.856;9.088;2023-04-03T14:07:51;2.77;;;1.80;;
42600;SDS011;28229;48.856;9.088;2023-04-03T14:10:17;2.03;;;1.70;;
42600;SDS011;28229;48.856;9.088;2023-04-03T14:12:58;2.80;;;1.70;;
42600;SDS011;28229;48.856;9.088;2023-04-03T14:15:26;2.33;;;1.67;;
42600;SDS011;28229;48.856;9.088;2023-04-03T14:17:56;3.20;;;1.70;;
42600;SDS011;28229;48.856;9.088;2023-04-03T14:20:23;3.90;;;2.00;;
42600;SDS011;28229;48.856;9.088;2023-04-03T14:22:52;3.60;;;2.50;;
42600;SDS011;28229;48.856;9.088;2023-04-03T14:25:19;2.97;;;2.60;;
42600;SDS011;28229;48.856;9.088;2023-04-03T14:27:49;3.87;;;2.23;;
42600;SDS011;28229;48.856;9.088;2023-04-03T14:32:58;1.70;;;1.57;;
42600;SDS011;28229;48.856;9.088;2023-04-03T14:35:26;1.80;;;1.70;;
42600;SDS011;28229;48.856;9.088;2023-04-03T14:37:53;2.60;;;1.73;;
42600;SDS011;28229;48.856;9.088;2023-04-03T14:40:22;2.00;;;1.60;;
42600;SDS011;28229;48.856;9.088;2023-04-03T14:42:52;2.57;;;1.87;;
42600;SDS011;28229;48.856;9.088;2023-04-03T14:45:21;2.70;;;1.90;;
42600;SDS011;28229;48.856;9.088;2023-04-03T14:47:49;2.37;;;1.70;;
42600;SDS011;28229;48.856;9.088;2023-04-03T14:50:23;2.53;;;1.80;;
42600;SDS011;28229;48.856;9.088;2023-04-03T14:52:52;2.27;;;1.80;;
42600;SDS011;28229;48.856;9.088;2023-04-03T14:55:21;2.87;;;2.50;;
42600;SDS011;28229;48.856;9.088;2023-04-03T14:57:49;2.13;;;1.70;;
42600;SDS011;28229;48.856;9.088;2023-04-03T15:00:16;2.30;;;1.83;;
42600;SDS011;28229;48.856;9.088;2023-04-03T15:02:45;1.60;;;1.50;;
42600;SDS011;28229;48.856;9.088;2023-04-03T15:05:13;3.10;;;2.00;;
42600;SDS011;28229;48.856;9.088;2023-04-03T15:07:41;2.40;;;2.07;;
42600;SDS011;28229;48.856;9.088;2023-04-03T15:12:47;1.80;;;1.70;;
42600;SDS011;28229;48.856;9.088;2023-04-03T15:15:15;3.83;;;2.20;;
42600;SDS011;28229;48.856;9.088;2023-04-03T15:17:43;2.30;;;1.97;;
42600;SDS011;28229;48.856;9.088;2023-04-03T15:20:11;2.67;;;1.87;;
42600;SDS011;28229;48.856;9.088;2023-04-03T15:22:39;4.90;;;2.70;;
42600;SDS011;28229;48.856;9.088;2023-04-03T15:25:06;3.10;;;1.77;;
42600;SDS011;28229;48.856;9.088;2023-04-03T15:27:32;3.13;;;1.77;;
42600;SDS011;28229;48.856;9.088;2023-04-03T15:29:58;2.73;;;1.80;;
42600;SDS011;28229;48.856;9.088;2023-04-03T15:32:25;2.73;;;2.53;;
42600;SDS011;28229;48.856;9.088;2023-04-03T15:34:51;5.70;;;4.47;;
42600;SDS011;28229;48.856;9.088;2023-04-03T15:37:17;2.67;;;2.30;;
42600;SDS011;28229;48.856;9.088;2023-04-03T15:39:43;3.13;;;2.60;;
42600;SDS011;28229;48.856;9.088;2023-04-03T15:42:10;3.43;;;2.70;;
42600;SDS011;28229;48.856;9.088;2023-04-03T15:44:38;3.07;;;2.30;;
42600;SDS011;28229;48.856;9.088;2023-04-03T15:47:04;3.60;;;2.60;;
42600;SDS011;28229;48.856;9.088;2023-04-03T15:49:33;4.80;;;3.07;;
42600;SDS011;28229;48.856;9.088;2023-04-03T15:52:00;7.53;;;4.93;;
42600;SDS011;28229;48.856;9.088;2023-04-03T15:54:27;4.87;;;3.23;;
42600;SDS011;28229;48.856;9.088;2023-04-03T15:56:55;2.83;;;2.00;;
42600;SDS011;28229;48.856;9.088;2023-04-03T15:59:21;2.57;;;1.93;;
42600;SDS011;28229;48.856;9.088;2023-04-03T16:01:48;4.40;;;2.20;;
42600;SDS011;28229;48.856;9.088;2023-04-03T16:04:16;3.20;;;1.90;;
42600;SDS011;28229;48.856;9.088;2023-04-03T16:06:43;2.80;;;2.17;;
42600;SDS011;28229;48.856;9.088;2023-04-03T16:09:09;2.87;;;2.10;;
42600;SDS011;28229;48.856;9.088;2023-04-03T16:11:36;2.87;;;1.87;;
42600;SDS011;28229;48.856;9.088;2023-04-03T16:14:05;2.33;;;1.73;;
42600;SDS011;28229;48.856;9.088;2023-04-03T16:16:32;1.70;;;1.60;;
42600;SDS011;28229;48.856;9.088;2023-04-03T16:18:58;2.17;;;1.97;;
42600;SDS011;28229;48.856;9.088;2023-04-03T16:21:25;2.10;;;1.90;;
42600;SDS011;28229;48.856;9.088;2023-04-03T16:23:52;2.43;;;1.90;;
42600;SDS011;28229;48.856;9.088;2023-04-03T16:26:19;2.70;;;1.60;;
42600;SDS011;28229;48.856;9.088;2023-04-03T16:28:45;2.13;;;1.80;;
42600;SDS011;28229;48.856;9.088;2023-04-03T16:31:11;4.57;;;1.90;;
42600;SDS011;28229;48.856;9.088;2023-04-03T16:33:38;1.87;;;1.70;;
42600;SDS011;28229;48.856;9.088;2023-04-03T16:36:04;2.17;;;1.90;;
42600;SDS011;28229;48.856;9.088;2023-04-03T16:38:31;2.00;;;1.80;;
42600;SDS011;28229;48.856;9.088;2023-04-03T16:40:57;2.03;;;1.80;;
42600;SDS011;28229;48.856;9.088;2023-04-03T16:43:25;3.60;;;1.70;;
42600;SDS011;28229;48.856;9.088;2023-04-03T16:45:52;2.37;;;1.87;;
42600;SDS011;28229;48.856;9.088;2023-04-03T16:48:18;3.57;;;2.03;;
42600;SDS011;28229;48.856;9.088;2023-04-03T16:50:46;2.60;;;1.70;;
42600;SDS011;28229;48.856;9.088;2023-04-03T16:53:14;2.13;;;1.90;;
42600;SDS011;28229;48.856;9.088;2023-04-03T16:55:41;3.40;;;2.20;;
42600;SDS011;28229;48.856;9.088;2023-04-03T16:58:07;2.17;;;1.90;;
42600;SDS011;28229;48.856;9.088;2023-04-03T17:00:33;2.73;;;2.20;;
42600;SDS011;28229;48.856;9.088;2023-04-03T17:03:00;2.00;;;1.80;;